createdAt,value
2024-01-05T00:01:27.732Z,8.14
2024-01-05T00:03:54.431Z,8.14
2024-01-05T00:06:21.207Z,8.14
2024-01-05T00:08:47.811Z,8.14
2024-01-05T00:11:20.884Z,8.14
2024-01-05T00:13:47.739Z,8.15
2024-01-05T00:16:21.045Z,8.14
2024-01-05T00:18:48.010Z,8.14
2024-01-05T00:21:20.928Z,8.14
2024-01-05T00:23:47.957Z,8.12
2024-01-05T00:26:14.708Z,8.14
2024-01-05T00:28:41.336Z,8.12
2024-01-05T00:31:09.680Z,8.12
2024-01-05T00:33:36.332Z,8.13
2024-01-05T00:36:03.830Z,8.11
2024-01-05T00:38:30.410Z,8.11
2024-01-05T00:40:56.899Z,8.11
2024-01-05T00:43:23.471Z,8.09
2024-01-05T00:45:50.015Z,8.10
2024-01-05T00:48:16.949Z,8.08
2024-01-05T00:50:43.631Z,8.08
2024-01-05T00:53:10.152Z,8.08
2024-01-05T00:55:36.663Z,8.08
2024-01-05T00:58:03.248Z,8.06
2024-01-05T01:00:29.940Z,8.05
2024-01-05T01:02:56.534Z,8.04
2024-01-05T01:05:23.460Z,8.05
2024-01-05T01:07:50.044Z,8.04
2024-01-05T01:10:16.537Z,8.05
2024-01-05T01:12:43.129Z,8.04
2024-01-05T01:15:09.828Z,8.05
2024-01-05T01:17:37.201Z,8.04
2024-01-05T01:20:04.529Z,8.04
2024-01-05T23:28:13.171Z,11.90
2024-01-05T23:30:39.831Z,11.90
2024-01-05T23:33:06.621Z,11.89
2024-01-05T23:35:33.218Z,11.87
2024-01-05T23:37:59.720Z,11.88
2024-01-05T23:40:26.237Z,11.89
2024-01-05T23:42:52.876Z,11.87
2024-01-05T23:45:19.687Z,11.88
2024-01-05T23:47:46.229Z,11.85
2024-01-05T23:50:12.820Z,11.85
2024-01-05T23:52:39.393Z,11.84
2024-01-05T23:55:05.976Z,11.83
2024-01-05T23:57:32.571Z,11.79
